sensor_id;sensor_type;location;lat;lon;timestamp;temperature;humidity
22418;DHT22;11376;50.932;4.442;2023-04-24T00:00:24;9.60;99.90
22418;DHT22;11376;50.932;4.442;2023-04-24T00:02:50;9.60;99.90
22418;DHT22;11376;50.932;4.442;2023-04-24T00:05:17;9.60;99.90
22418;DHT22;11376;50.932;4.442;2023-04-24T00:07:43;9.60;99.90
22418;DHT22;11376;50.932;4.442;2023-04-24T00:10:09;9.60;99.90
22418;DHT22;11376;50.932;4.442;2023-04-24T00:12:35;9.60;99.90
22418;DHT22;11376;50.932;4.442;2023-04-24T00:15:01;9.60;99.90
22418;DHT22;11376;50.932;4.442;2023-04-24T00:17:27;9.50;99.90
22418;DHT22;11376;50.932;4.442;2023-04-24T00:19:53;9.50;99.90
22418;DHT22;11376;50.932;4.442;2023-04-24T00:22:24;9.50;99.90
22418;DHT22;11376;50.932;4.442;2023-04-24T00:24:50;9.50;99.90
22418;DHT22;11376;50.932;4.442;2023-04-24T00:27:16;9.50;99.90
22418;DHT22;11376;50.932;4.442;2023-04-24T00:29:41;9.50;99.90
22418;DHT22;11376;50.932;4.442;2023-04-24T00:32:07;9.50;99.90
22418;DHT22;11376;50.932;4.442;2023-04-24T00:34:33;9.50;99.90
22418;DHT22;11376;50.932;4.442;2023-04-24T00:36:58;9.50;99.90
22418;DHT22;11376;50.932;4.442;2023-04-24T00:39:24;9.50;99.90
22418;DHT22;11376;50.932;4.442;2023-04-24T00:41:50;9.50;99.90
22418;DHT22;11376;50.932;4.442;2023-04-24T00:44:16;9.40;99.90
22418;DHT22;11376;50.932;4.442;2023-04-24T00:46:42;9.40;99.90
22418;DHT22;11376;50.932;4.442;2023-04-24T00:49:08;9.40;99.90
22418;DHT22;11376;50.932;4.442;2023-04-24T00:51:34;9.40;99.90
22418;DHT22;11376;50.932;4.442;2023-04-24T00:54:00;9.40;99.90
22418;DHT22;11376;50.932;4.442;2023-04-24T00:56:27;9.40;99.90
22418;DHT22;11376;50.932;4.442;2023-04-24T00:58:53;9.40;99.90
22418;DHT22;11376;50.932;4.442;2023-04-24T01:01:22;9.40;99.90
22418;DHT22;11376;50.932;4.442;2023-04-24T01:03:51;9.30;99.90
22418;DHT22;11376;50.932;4.442;2023-04-24T01:06:17;9.30;99.90
22418;DHT22;11376;50.932;4.442;2023-04-24T01:08:43;9.30;99.90
22418;DHT22;11376;50.932;4.442;2023-04-24T01:11:11;9.30;99.90
22418;DHT22;11376;50.932;4.442;2023-04-24T01:13:37;9.30;99.90
22418;DHT22;11376;50.932;4.442;2023-04-24T01:16:02;9.20;99.90
22418;DHT22;11376;50.932;4.442;2023-04-24T01:18:28;9.30;99.90
22418;DHT22;11376;50.932;4.442;2023-04-24T01:20:59;9.20;99.90
22418;DHT22;11376;50.932;4.442;2023-04-24T01:23:26;9.20;99.90
22418;DHT22;11376;50.932;4.442;2023-04-24T01:25:52;9.20;99.90
22418;DHT22;11376;50.932;4.442;2023-04-24T01:28:18;9.20;99.90
22418;DHT22;11376;50.932;4.442;2023-04-24T01:30:43;9.10;99.90
22418;DHT22;11376;50.932;4.442;2023-04-24T01:33:09;9.20;99.90
22418;DHT22;11376;50.932;4.442;2023-04-24T01:35:36;9.10;99.90
22418;DHT22;11376;50.932;4.442;2023-04-24T01:38:02;9.10;99.90
22418;DHT22;11376;50.932;4.442;2023-04-24T01:40:28;9.10;99.90
22418;DHT22;11376;50.932;4.442;2023-04-24T01:42:54;9.20;99.90
22418;DHT22;11376;50.932;4.442;2023-04-24T01:45:20;9.10;99.90
22418;DHT22;11376;50.932;4.442;2023-04-24T01:47:46;9.20;99.90
22418;DHT22;11376;50.932;4.442;2023-04-24T01:50:13;9.10;99.90
22418;DHT22;11376;50.932;4.442;2023-04-24T01:52:38;9.10;99.90
22418;DHT22;11376;50.932;4.442;2023-04-24T01:55:04;9.10;99.90
22418;DHT22;11376;50.932;4.442;2023-04-24T01:57:31;9.10;99.90
22418;DHT22;11376;50.932;4.442;2023-04-24T01:59:57;9.10;99.90
22418;DHT22;11376;50.932;4.442;2023-04-24T02:02:23;9.10;99.90
22418;DHT22;11376;50.932;4.442;2023-04-24T02:04:56;9.00;99.90
22418;DHT22;11376;50.932;4.442;2023-04-24T02:07:22;9.00;99.90
22418;DHT22;11376;50.932;4.442;2023-04-24T02:09:48;9.00;99.90
22418;DHT22;11376;50.932;4.442;2023-04-24T02:12:14;8.90;99.90
22418;DHT22;11376;50.932;4.442;2023-04-24T02:14:40;8.90;99.90
22418;DHT22;11376;50.932;4.442;2023-04-24T02:17:07;8.80;99.90
22418;DHT22;11376;50.932;4.442;2023-04-24T02:19:33;8.80;99.90
22418;DHT22;11376;50.932;4.442;2023-04-24T02:21:59;8.80;99.90
22418;DHT22;11376;50.932;4.442;2023-04-24T02:24:24;8.80;99.90
22418;DHT22;11376;50.932;4.442;2023-04-24T02:26:50;8.80;99.90
22418;DHT22;11376;50.932;4.442;2023-04-24T02:29:15;8.80;99.90
22418;DHT22;11376;50.932;4.442;2023-04-24T02:31:41;8.80;99.90
22418;DHT22;11376;50.932;4.442;2023-04-24T02:34:07;8.70;99.90
22418;DHT22;11376;50.932;4.442;2023-04-24T02:36:33;8.80;99.90
22418;DHT22;11376;50.932;4.442;2023-04-24T02:38:59;8.80;99.90
22418;DHT22;11376;50.932;4.442;2023-04-24T02:41:25;8.80;99.90
22418;DHT22;11376;50.932;4.442;2023-04-24T02:43:50;8.70;99.90
22418;DHT22;11376;50.932;4.442;2023-04-24T02:46:16;8.70;99.90
22418;DHT22;11376;50.932;4.442;2023-04-24T02:48:41;8.70;99.90
22418;DHT22;11376;50.932;4.442;2023-04-24T02:51:07;8.70;99.90
22418;DHT22;11376;50.932;4.442;2023-04-24T02:53:33;8.60;99.90
22418;DHT22;11376;50.932;4.442;2023-04-24T02:55:58;8.70;99.90
22418;DHT22;11376;50.932;4.442;2023-04-24T02:58:24;8.60;99.90
22418;DHT22;11376;50.932;4.442;2023-04-24T03:00:54;8.70;99.90
22418;DHT22;11376;50.932;4.442;2023-04-24T03:03:20;8.70;99.90
22418;DHT22;11376;50.932;4.442;2023-04-24T03:05:46;8.60;99.90
22418;DHT22;11376;50.932;4.442;2023-04-24T03:08:12;8.70;99.90
22418;DHT22;11376;50.932;4.442;2023-04-24T03:10:38;8.70;99.90
22418;DHT22;11376;50.932;4.442;2023-04-24T03:13:03;8.60;99.90
22418;DHT22;11376;50.932;4.442;2023-04-24T03:15:29;8.70;99.90
22418;DHT22;11376;50.932;4.442;2023-04-24T03:17:54;8.70;99.90
22418;DHT22;11376;50.932;4.442;2023-04-24T03:20:21;8.60;99.90
22418;DHT22;11376;50.932;4.442;2023-04-24T03:22:47;8.60;99.90
22418;DHT22;11376;50.932;4.442;2023-04-24T03:25:13;8.60;99.90
22418;DHT22;11376;50.932;4.442;2023-04-24T03:27:38;8.60;99.90
22418;DHT22;11376;50.932;4.442;2023-04-24T03:30:08;8.60;99.90
22418;DHT22;11376;50.932;4.442;2023-04-24T03:32:34;8.60;99.90
22418;DHT22;11376;50.932;4.442;2023-04-24T03:35:00;8.60;99.90
22418;DHT22;11376;50.932;4.442;2023-04-24T03:37:25;8.70;99.90
22418;DHT22;11376;50.932;4.442;2023-04-24T03:39:52;8.70;99.90
22418;DHT22;11376;50.932;4.442;2023-04-24T03:42:17;8.70;99.90
22418;DHT22;11376;50.932;4.442;2023-04-24T03:44:43;8.60;99.90
22418;DHT22;11376;50.932;4.442;2023-04-24T03:47:09;8.60;99.90
22418;DHT22;11376;50.932;4.442;2023-04-24T03:49:34;8.60;99.90
22418;DHT22;11376;50.932;4.442;2023-04-24T03:52:00;8.60;99.90
22418;DHT22;11376;50.932;4.442;2023-04-24T03:54:26;8.60;99.90
22418;DHT22;11376;50.932;4.442;2023-04-24T03:56:52;8.60;99.90
22418;DHT22;11376;50.932;4.442;2023-04-24T03:59:17;8.60;99.90
22418;DHT22;11376;50.932;4.442;2023-04-24T04:01:43;8.60;99.90
22418;DHT22;11376;50.932;4.442;2023-04-24T04:04:09;8.60;99.90
22418;DHT22;11376;50.932;4.442;2023-04-24T04:06:34;8.60;99.90
22418;DHT22;11376;50.932;4.442;2023-04-24T04:09:02;8.60;99.90
22418;DHT22;11376;50.932;4.442;2023-04-24T04:11:28;8.60;99.90
22418;DHT22;11376;50.932;4.442;2023-04-24T04:13:54;8.60;99.90
22418;DHT22;11376;50.932;4.442;2023-04-24T04:16:20;8.60;99.90
22418;DHT22;11376;50.932;4.442;2023-04-24T04:18:45;8.60;99.90
22418;DHT22;11376;50.932;4.442;2023-04-24T04:21:11;8.60;99.90
22418;DHT22;11376;50.932;4.442;2023-04-24T04:23:37;8.70;99.90
22418;DHT22;11376;50.932;4.442;2023-04-24T04:26:03;8.60;99.90
22418;DHT22;11376;50.932;4.442;2023-04-24T04:28:29;8.60;99.90
22418;DHT22;11376;50.932;4.442;2023-04-24T04:30:57;8.60;99.90
22418;DHT22;11376;50.932;4.442;2023-04-24T04:33:23;8.60;99.90
22418;DHT22;11376;50.932;4.442;2023-04-24T04:35:50;8.60;99.90
22418;DHT22;11376;50.932;4.442;2023-04-24T04:38:18;8.50;99.90
22418;DHT22;11376;50.932;4.442;2023-04-24T04:40:44;8.50;99.90
22418;DHT22;11376;50.932;4.442;2023-04-24T04:43:10;8.60;99.90
22418;DHT22;11376;50.932;4.442;2023-04-24T04:45:41;8.60;99.90
22418;DHT22;11376;50.932;4.442;2023-04-24T04:48:09;8.50;99.90
22418;DHT22;11376;50.932;4.442;2023-04-24T04:50:37;8.50;99.90
22418;DHT22;11376;50.932;4.442;2023-04-24T04:53:03;8.50;99.90
22418;DHT22;11376;50.932;4.442;2023-04-24T04:55:28;8.50;99.90
22418;DHT22;11376;50.932;4.442;2023-04-24T04:57:54;8.50;99.90
22418;DHT22;11376;50.932;4.442;2023-04-24T05:00:21;8.60;99.90
22418;DHT22;11376;50.932;4.442;2023-04-24T05:02:47;8.50;99.90
22418;DHT22;11376;50.932;4.442;2023-04-24T05:05:12;8.50;99.90
22418;DHT22;11376;50.932;4.442;2023-04-24T05:07:38;8.50;99.90
22418;DHT22;11376;50.932;4.442;2023-04-24T05:10:04;8.60;99.90
22418;DHT22;11376;50.932;4.442;2023-04-24T05:12:30;8.60;99.90
22418;DHT22;11376;50.932;4.442;2023-04-24T05:14:55;8.50;99.90
22418;DHT22;11376;50.932;4.442;2023-04-24T05:17:21;8.50;99.90
22418;DHT22;11376;50.932;4.442;2023-04-24T05:19:47;8.50;99.90
22418;DHT22;11376;50.932;4.442;2023-04-24T05:22:13;8.50;99.90
22418;DHT22;11376;50.932;4.442;2023-04-24T05:24:39;8.50;99.90
22418;DHT22;11376;50.932;4.442;2023-04-24T05:27:05;8.40;99.90
22418;DHT22;11376;50.932;4.442;2023-04-24T05:29:31;8.40;99.90
22418;DHT22;11376;50.932;4.442;2023-04-24T05:31:57;8.40;99.90
22418;DHT22;11376;50.932;4.442;2023-04-24T05:34:23;8.30;99.90
22418;DHT22;11376;50.932;4.442;2023-04-24T05:36:49;8.30;99.90
22418;DHT22;11376;50.932;4.442;2023-04-24T05:39:16;8.30;99.90
22418;DHT22;11376;50.932;4.442;2023-04-24T05:41:41;8.40;99.90
22418;DHT22;11376;50.932;4.442;2023-04-24T05:44:07;8.40;99.90
22418;DHT22;11376;50.932;4.442;2023-04-24T05:46:33;8.40;99.90
22418;DHT22;11376;50.932;4.442;2023-04-24T05:48:58;8.40;99.90
22418;DHT22;11376;50.932;4.442;2023-04-24T05:51:24;8.30;99.90
22418;DHT22;11376;50.932;4.442;2023-04-24T05:53:50;8.40;99.90
22418;DHT22;11376;50.932;4.442;2023-04-24T05:56:16;8.40;99.90
22418;DHT22;11376;50.932;4.442;2023-04-24T05:58:41;8.30;99.90
22418;DHT22;11376;50.932;4.442;2023-04-24T06:01:07;8.40;99.90
22418;DHT22;11376;50.932;4.442;2023-04-24T06:03:33;8.40;99.90
22418;DHT22;11376;50.932;4.442;2023-04-24T06:05:58;8.40;99.90
22418;DHT22;11376;50.932;4.442;2023-04-24T06:08:24;8.40;99.90
22418;DHT22;11376;50.932;4.442;2023-04-24T06:10:50;8.30;99.90
22418;DHT22;11376;50.932;4.442;2023-04-24T06:13:15;8.30;99.90
22418;DHT22;11376;50.932;4.442;2023-04-24T06:15:41;8.40;99.90
22418;DHT22;11376;50.932;4.442;2023-04-24T06:18:07;8.30;99.90
22418;DHT22;11376;50.932;4.442;2023-04-24T06:20:35;8.40;99.90
22418;DHT22;11376;50.932;4.442;2023-04-24T06:23:01;8.40;99.90
22418;DHT22;11376;50.932;4.442;2023-04-24T06:25:27;8.40;99.90
22418;DHT22;11376;50.932;4.442;2023-04-24T06:27:53;8.40;99.90
22418;DHT22;11376;50.932;4.442;2023-04-24T06:30:19;8.40;99.90
22418;DHT22;11376;50.932;4.442;2023-04-24T06:32:44;8.40;99.90
22418;DHT22;11376;50.932;4.442;2023-04-24T06:35:10;8.50;99.90
22418;DHT22;11376;50.932;4.442;2023-04-24T06:37:41;8.40;99.90
22418;DHT22;11376;50.932;4.442;2023-04-24T06:40:07;8.40;99.90
22418;DHT22;11376;50.932;4.442;2023-04-24T06:42:33;8.40;99.90
22418;DHT22;11376;50.932;4.442;2023-04-24T06:45:00;8.40;99.90
22418;DHT22;11376;50.932;4.442;2023-04-24T06:47:26;8.50;99.90
22418;DHT22;11376;50.932;4.442;2023-04-24T06:49:52;8.50;99.90
22418;DHT22;11376;50.932;4.442;2023-04-24T06:52:18;8.50;99.90
22418;DHT22;11376;50.932;4.442;2023-04-24T06:54:44;8.60;99.90
22418;DHT22;11376;50.932;4.442;2023-04-24T06:57:10;8.60;99.90
22418;DHT22;11376;50.932;4.442;2023-04-24T06:59:36;8.60;99.90
22418;DHT22;11376;50.932;4.442;2023-04-24T07:02:02;8.60;99.90
22418;DHT22;11376;50.932;4.442;2023-04-24T07:04:28;8.60;99.90
22418;DHT22;11376;50.932;4.442;2023-04-24T07:06:54;8.70;99.90
22418;DHT22;11376;50.932;4.442;2023-04-24T07:09:21;8.70;99.90
22418;DHT22;11376;50.932;4.442;2023-04-24T07:11:47;8.80;99.90
22418;DHT22;11376;50.932;4.442;2023-04-24T07:14:13;8.70;99.90
22418;DHT22;11376;50.932;4.442;2023-04-24T07:16:39;8.70;99.90
22418;DHT22;11376;50.932;4.442;2023-04-24T07:19:05;8.70;99.90
22418;DHT22;11376;50.932;4.442;2023-04-24T07:21:31;8.70;99.90
22418;DHT22;11376;50.932;4.442;2023-04-24T07:23:57;8.70;99.90
22418;DHT22;11376;50.932;4.442;2023-04-24T07:26:23;8.70;99.90
22418;DHT22;11376;50.932;4.442;2023-04-24T07:28:49;8.70;99.90
22418;DHT22;11376;50.932;4.442;2023-04-24T07:31:14;8.70;99.90
22418;DHT22;11376;50.932;4.442;2023-04-24T07:33:40;8.80;99.90
22418;DHT22;11376;50.932;4.442;2023-04-24T07:36:06;8.80;99.90
22418;DHT22;11376;50.932;4.442;2023-04-24T07:38:31;8.80;99.90
22418;DHT22;11376;50.932;4.442;2023-04-24T07:40:57;8.80;99.90
22418;DHT22;11376;50.932;4.442;2023-04-24T07:43:23;8.90;99.90
22418;DHT22;11376;50.932;4.442;2023-04-24T07:45:50;9.00;99.90
22418;DHT22;11376;50.932;4.442;2023-04-24T07:48:16;8.90;99.90
22418;DHT22;11376;50.932;4.442;2023-04-24T07:50:43;9.00;99.90
22418;DHT22;11376;50.932;4.442;2023-04-24T07:53:09;9.10;99.90
22418;DHT22;11376;50.932;4.442;2023-04-24T07:55:35;9.20;99.90
22418;DHT22;11376;50.932;4.442;2023-04-24T07:58:01;9.30;99.90
22418;DHT22;11376;50.932;4.442;2023-04-24T08:00:26;9.40;99.90
22418;DHT22;11376;50.932;4.442;2023-04-24T08:02:52;9.40;99.90
22418;DHT22;11376;50.932;4.442;2023-04-24T08:05:18;9.40;99.90
22418;DHT22;11376;50.932;4.442;2023-04-24T08:07:45;9.50;99.90
22418;DHT22;11376;50.932;4.442;2023-04-24T08:10:11;9.50;99.90
22418;DHT22;11376;50.932;4.442;2023-04-24T08:12:37;9.50;99.90
22418;DHT22;11376;50.932;4.442;2023-04-24T08:15:04;9.40;99.90
22418;DHT22;11376;50.932;4.442;2023-04-24T08:17:30;9.50;99.90
22418;DHT22;11376;50.932;4.442;2023-04-24T08:19:55;9.40;99.90
22418;DHT22;11376;50.932;4.442;2023-04-24T08:22:29;9.50;99.90
22418;DHT22;11376;50.932;4.442;2023-04-24T08:24:55;9.50;99.90
22418;DHT22;11376;50.932;4.442;2023-04-24T08:27:22;9.50;99.90
22418;DHT22;11376;50.932;4.442;2023-04-24T08:29:48;9.70;99.90
22418;DHT22;11376;50.932;4.442;2023-04-24T08:32:14;9.80;99.90
22418;DHT22;11376;50.932;4.442;2023-04-24T08:34:40;9.90;99.90
22418;DHT22;11376;50.932;4.442;2023-04-24T08:37:06;10.20;99.90
22418;DHT22;11376;50.932;4.442;2023-04-24T08:39:31;10.30;99.90
22418;DHT22;11376;50.932;4.442;2023-04-24T08:41:57;10.50;99.90
22418;DHT22;11376;50.932;4.442;2023-04-24T08:44:34;10.40;99.90
22418;DHT22;11376;50.932;4.442;2023-04-24T08:47:02;10.40;99.90
22418;DHT22;11376;50.932;4.442;2023-04-24T08:49:29;10.40;99.90
22418;DHT22;11376;50.932;4.442;2023-04-24T08:51:55;10.30;99.90
22418;DHT22;11376;50.932;4.442;2023-04-24T08:54:21;10.20;99.90
22418;DHT22;11376;50.932;4.442;2023-04-24T08:56:48;10.20;99.90
22418;DHT22;11376;50.932;4.442;2023-04-24T08:59:15;10.20;99.90
22418;DHT22;11376;50.932;4.442;2023-04-24T09:01:41;10.30;99.90
22418;DHT22;11376;50.932;4.442;2023-04-24T09:04:09;10.40;99.90
22418;DHT22;11376;50.932;4.442;2023-04-24T09:06:39;10.30;99.90
22418;DHT22;11376;50.932;4.442;2023-04-24T09:09:05;10.40;99.90
22418;DHT22;11376;50.932;4.442;2023-04-24T09:11:31;10.50;99.90
22418;DHT22;11376;50.932;4.442;2023-04-24T09:14:00;10.60;99.90
22418;DHT22;11376;50.932;4.442;2023-04-24T09:16:27;10.90;99.90
22418;DHT22;11376;50.932;4.442;2023-04-24T09:18:53;11.30;99.90
22418;DHT22;11376;50.932;4.442;2023-04-24T09:21:21;11.70;99.90
22418;DHT22;11376;50.932;4.442;2023-04-24T09:23:57;11.50;99.90
22418;DHT22;11376;50.932;4.442;2023-04-24T09:26:23;11.50;99.90
22418;DHT22;11376;50.932;4.442;2023-04-24T09:28:49;11.40;99.90
22418;DHT22;11376;50.932;4.442;2023-04-24T09:31:17;11.30;99.90
22418;DHT22;11376;50.932;4.442;2023-04-24T09:34:01;11.00;99.90
22418;DHT22;11376;50.932;4.442;2023-04-24T09:36:32;10.90;99.90
22418;DHT22;11376;50.932;4.442;2023-04-24T09:39:02;10.90;99.90
22418;DHT22;11376;50.932;4.442;2023-04-24T09:41:30;10.90;99.90
22418;DHT22;11376;50.932;4.442;2023-04-24T09:43:58;11.30;99.90
22418;DHT22;11376;50.932;4.442;2023-04-24T09:46:30;11.60;99.90
22418;DHT22;11376;50.932;4.442;2023-04-24T09:49:12;11.70;99.90
22418;DHT22;11376;50.932;4.442;2023-04-24T09:51:38;11.90;99.90
22418;DHT22;11376;50.932;4.442;2023-04-24T09:54:20;11.90;99.90
22418;DHT22;11376;50.932;4.442;2023-04-24T09:56:50;11.40;99.90
22418;DHT22;11376;50.932;4.442;2023-04-24T09:59:19;11.40;99.90
22418;DHT22;11376;50.932;4.442;2023-04-24T10:01:45;11.50;99.90
22418;DHT22;11376;50.932;4.442;2023-04-24T10:04:18;11.40;99.90
22418;DHT22;11376;50.932;4.442;2023-04-24T10:06:44;11.80;99.90
22418;DHT22;11376;50.932;4.442;2023-04-24T10:09:10;11.90;99.90
22418;DHT22;11376;50.932;4.442;2023-04-24T10:11:37;12.20;99.90
22418;DHT22;11376;50.932;4.442;2023-04-24T10:14:05;12.20;99.90
22418;DHT22;11376;50.932;4.442;2023-04-24T10:16:31;12.00;99.90
22418;DHT22;11376;50.932;4.442;2023-04-24T10:18:59;12.00;99.90
22418;DHT22;11376;50.932;4.442;2023-04-24T10:21:26;12.10;99.90
22418;DHT22;11376;50.932;4.442;2023-04-24T10:23:52;11.90;99.90
22418;DHT22;11376;50.932;4.442;2023-04-24T10:26:18;12.00;99.90
22418;DHT22;11376;50.932;4.442;2023-04-24T10:28:47;11.90;99.90
22418;DHT22;11376;50.932;4.442;2023-04-24T10:31:14;11.90;99.90
22418;DHT22;11376;50.932;4.442;2023-04-24T10:33:41;11.90;99.90
22418;DHT22;11376;50.932;4.442;2023-04-24T10:36:09;11.70;99.90
22418;DHT22;11376;50.932;4.442;2023-04-24T10:38:37;11.50;99.90
22418;DHT22;11376;50.932;4.442;2023-04-24T10:41:10;11.40;99.90
22418;DHT22;11376;50.932;4.442;2023-04-24T10:43:41;11.30;99.90
22418;DHT22;11376;50.932;4.442;2023-04-24T10:46:08;11.60;99.90
22418;DHT22;11376;50.932;4.442;2023-04-24T10:48:35;11.80;99.90
22418;DHT22;11376;50.932;4.442;2023-04-24T10:51:11;12.10;99.90
22418;DHT22;11376;50.932;4.442;2023-04-24T10:53:38;12.30;99.90
22418;DHT22;11376;50.932;4.442;2023-04-24T10:56:08;12.10;99.90
22418;DHT22;11376;50.932;4.442;2023-04-24T10:58:43;12.20;99.90
22418;DHT22;11376;50.932;4.442;2023-04-24T11:01:28;12.00;99.90
22418;DHT22;11376;50.932;4.442;2023-04-24T11:03:57;11.90;99.90
22418;DHT22;11376;50.932;4.442;2023-04-24T11:06:33;12.10;99.90
22418;DHT22;11376;50.932;4.442;2023-04-24T11:09:08;12.20;99.90
22418;DHT22;11376;50.932;4.442;2023-04-24T11:11:36;12.50;99.90
22418;DHT22;11376;50.932;4.442;2023-04-24T11:14:04;12.70;99.90
22418;DHT22;11376;50.932;4.442;2023-04-24T11:16:31;14.70;99.90
22418;DHT22;11376;50.932;4.442;2023-04-24T11:19:06;16.30;99.90
22418;DHT22;11376;50.932;4.442;2023-04-24T11:27:21;14.90;99.90
22418;DHT22;11376;50.932;4.442;2023-04-24T11:34:52;13.40;99.90
22418;DHT22;11376;50.932;4.442;2023-04-24T11:37:17;13.20;99.90
22418;DHT22;11376;50.932;4.442;2023-04-24T11:39:43;12.70;99.90
22418;DHT22;11376;50.932;4.442;2023-04-24T11:42:09;12.40;99.90
22418;DHT22;11376;50.932;4.442;2023-04-24T11:44:35;12.60;99.90
22418;DHT22;11376;50.932;4.442;2023-04-24T11:47:06;12.60;99.90
22418;DHT22;11376;50.932;4.442;2023-04-24T11:49:33;12.80;99.90
22418;DHT22;11376;50.932;4.442;2023-04-24T11:52:02;13.00;99.90
22418;DHT22;11376;50.932;4.442;2023-04-24T11:54:28;13.40;99.90
22418;DHT22;11376;50.932;4.442;2023-04-24T11:56:53;15.60;99.90
22418;DHT22;11376;50.932;4.442;2023-04-24T11:59:19;16.90;99.90
22418;DHT22;11376;50.932;4.442;2023-04-24T12:01:46;17.40;99.90
22418;DHT22;11376;50.932;4.442;2023-04-24T12:04:12;16.70;99.90
22418;DHT22;11376;50.932;4.442;2023-04-24T12:06:38;14.50;99.90
22418;DHT22;11376;50.932;4.442;2023-04-24T12:09:04;13.70;99.90
22418;DHT22;11376;50.932;4.442;2023-04-24T12:11:30;13.20;99.90
22418;DHT22;11376;50.932;4.442;2023-04-24T12:13:56;13.60;99.90
22418;DHT22;11376;50.932;4.442;2023-04-24T12:16:22;13.70;99.90
22418;DHT22;11376;50.932;4.442;2023-04-24T12:18:48;14.20;99.90
22418;DHT22;11376;50.932;4.442;2023-04-24T12:21:20;14.40;99.90
22418;DHT22;11376;50.932;4.442;2023-04-24T12:23:46;14.30;99.90
22418;DHT22;11376;50.932;4.442;2023-04-24T12:26:16;14.00;99.90
22418;DHT22;11376;50.932;4.442;2023-04-24T12:28:45;14.30;99.90
22418;DHT22;11376;50.932;4.442;2023-04-24T12:31:11;14.60;99.90
22418;DHT22;11376;50.932;4.442;2023-04-24T12:33:36;14.20;99.90
22418;DHT22;11376;50.932;4.442;2023-04-24T12:36:03;14.60;99.90
22418;DHT22;11376;50.932;4.442;2023-04-24T12:38:30;14.50;99.90
22418;DHT22;11376;50.932;4.442;2023-04-24T12:41:04;14.30;99.90
22418;DHT22;11376;50.932;4.442;2023-04-24T12:43:30;14.10;99.90
22418;DHT22;11376;50.932;4.442;2023-04-24T12:45:56;13.70;99.90
22418;DHT22;11376;50.932;4.442;2023-04-24T12:48:22;13.30;99.90
22418;DHT22;11376;50.932;4.442;2023-04-24T12:50:48;12.90;99.90
22418;DHT22;11376;50.932;4.442;2023-04-24T12:53:14;13.00;99.90
22418;DHT22;11376;50.932;4.442;2023-04-24T12:55:41;13.10;99.90
22418;DHT22;11376;50.932;4.442;2023-04-24T12:58:07;12.90;99.90
22418;DHT22;11376;50.932;4.442;2023-04-24T13:00:33;14.30;99.90
22418;DHT22;11376;50.932;4.442;2023-04-24T13:02:59;15.50;99.90
22418;DHT22;11376;50.932;4.442;2023-04-24T13:05:24;15.60;99.90
22418;DHT22;11376;50.932;4.442;2023-04-24T13:07:50;16.90;99.90
22418;DHT22;11376;50.932;4.442;2023-04-24T13:10:16;17.20;99.90
22418;DHT22;11376;50.932;4.442;2023-04-24T13:12:41;17.50;99.90
22418;DHT22;11376;50.932;4.442;2023-04-24T13:15:10;18.30;99.90
22418;DHT22;11376;50.932;4.442;2023-04-24T13:17:36;18.50;99.90
22418;DHT22;11376;50.932;4.442;2023-04-24T13:20:02;18.80;99.90
22418;DHT22;11376;50.932;4.442;2023-04-24T13:22:28;19.40;99.90
22418;DHT22;11376;50.932;4.442;2023-04-24T13:24:53;19.10;99.90
22418;DHT22;11376;50.932;4.442;2023-04-24T13:27:19;20.00;99.90
22418;DHT22;11376;50.932;4.442;2023-04-24T13:29:45;19.40;99.90
22418;DHT22;11376;50.932;4.442;2023-04-24T13:32:11;18.10;99.90
22418;DHT22;11376;50.932;4.442;2023-04-24T13:34:37;16.70;99.90
22418;DHT22;11376;50.932;4.442;2023-04-24T13:37:04;15.80;99.90
22418;DHT22;11376;50.932;4.442;2023-04-24T13:39:30;16.30;99.90
22418;DHT22;11376;50.932;4.442;2023-04-24T13:41:56;16.40;99.90
22418;DHT22;11376;50.932;4.442;2023-04-24T13:44:22;16.50;99.90
22418;DHT22;11376;50.932;4.442;2023-04-24T13:46:50;16.20;99.90
22418;DHT22;11376;50.932;4.442;2023-04-24T13:49:17;15.70;99.90
22418;DHT22;11376;50.932;4.442;2023-04-24T13:51:43;16.50;99.90
22418;DHT22;11376;50.932;4.442;2023-04-24T13:54:09;16.20;99.90
22418;DHT22;11376;50.932;4.442;2023-04-24T13:56:34;15.60;99.90
22418;DHT22;11376;50.932;4.442;2023-04-24T13:59:00;14.90;99.90
22418;DHT22;11376;50.932;4.442;2023-04-24T14:01:26;15.00;99.90
22418;DHT22;11376;50.932;4.442;2023-04-24T14:03:53;14.60;99.90
22418;DHT22;11376;50.932;4.442;2023-04-24T14:06:19;14.70;99.90
22418;DHT22;11376;50.932;4.442;2023-04-24T14:08:46;15.00;99.90
22418;DHT22;11376;50.932;4.442;2023-04-24T14:11:11;14.70;99.90
22418;DHT22;11376;50.932;4.442;2023-04-24T14:13:38;14.80;99.90
22418;DHT22;11376;50.932;4.442;2023-04-24T14:16:04;15.10;99.90
22418;DHT22;11376;50.932;4.442;2023-04-24T14:18:30;14.70;99.90
22418;DHT22;11376;50.932;4.442;2023-04-24T14:20:56;15.10;99.90
22418;DHT22;11376;50.932;4.442;2023-04-24T14:23:22;15.50;99.90
22418;DHT22;11376;50.932;4.442;2023-04-24T14:25:47;15.40;99.90
22418;DHT22;11376;50.932;4.442;2023-04-24T14:28:17;14.80;99.90
22418;DHT22;11376;50.932;4.442;2023-04-24T14:30:43;14.40;99.90
22418;DHT22;11376;50.932;4.442;2023-04-24T14:33:08;14.60;99.90
22418;DHT22;11376;50.932;4.442;2023-04-24T14:35:35;15.10;99.90
22418;DHT22;11376;50.932;4.442;2023-04-24T14:38:01;16.30;99.90
22418;DHT22;11376;50.932;4.442;2023-04-24T14:40:26;16.50;99.90
22418;DHT22;11376;50.932;4.442;2023-04-24T14:42:52;16.00;99.90
22418;DHT22;11376;50.932;4.442;2023-04-24T14:45:18;15.60;99.90
22418;DHT22;11376;50.932;4.442;2023-04-24T14:47:44;15.10;99.90
22418;DHT22;11376;50.932;4.442;2023-04-24T14:50:10;15.00;99.90
22418;DHT22;11376;50.932;4.442;2023-04-24T14:52:38;14.90;99.90
22418;DHT22;11376;50.932;4.442;2023-04-24T14:55:04;14.40;99.90
22418;DHT22;11376;50.932;4.442;2023-04-24T14:57:30;14.50;99.90
22418;DHT22;11376;50.932;4.442;2023-04-24T14:59:55;14.40;99.90
22418;DHT22;11376;50.932;4.442;2023-04-24T15:02:21;14.40;99.90
22418;DHT22;11376;50.932;4.442;2023-04-24T15:04:46;14.50;99.90
22418;DHT22;11376;50.932;4.442;2023-04-24T15:07:12;14.70;99.90
22418;DHT22;11376;50.932;4.442;2023-04-24T15:09:38;14.40;99.90
22418;DHT22;11376;50.932;4.442;2023-04-24T15:12:04;14.10;99.90
22418;DHT22;11376;50.932;4.442;2023-04-24T15:14:30;14.30;99.90
22418;DHT22;11376;50.932;4.442;2023-04-24T15:16:56;14.30;99.90
22418;DHT22;11376;50.932;4.442;2023-04-24T15:19:21;13.90;99.90
22418;DHT22;11376;50.932;4.442;2023-04-24T15:21:47;14.00;99.90
22418;DHT22;11376;50.932;4.442;2023-04-24T15:24:13;14.00;99.90
22418;DHT22;11376;50.932;4.442;2023-04-24T15:26:38;14.10;99.90
22418;DHT22;11376;50.932;4.442;2023-04-24T15:29:04;13.50;99.90
22418;DHT22;11376;50.932;4.442;2023-04-24T15:31:30;13.20;99.90
22418;DHT22;11376;50.932;4.442;2023-04-24T15:33:55;13.00;99.90
22418;DHT22;11376;50.932;4.442;2023-04-24T15:36:21;13.00;99.90
22418;DHT22;11376;50.932;4.442;2023-04-24T15:38:47;13.20;99.90
22418;DHT22;11376;50.932;4.442;2023-04-24T15:41:13;13.20;99.90
22418;DHT22;11376;50.932;4.442;2023-04-24T15:43:39;13.10;99.90
22418;DHT22;11376;50.932;4.442;2023-04-24T15:46:06;13.10;99.90